Time;durP1;ratioP1;P1;durP2;ratioP2;P2;SDS_P1;SDS_P2;PMS_P1;PMS_P2;Temp;Humidity;BMP_temperature;BMP_pressure;BME280_temperature;BME280_humidity;BME280_pressure;Samples;Min_cycle;Max_cycle;Signal;HPM_P1;HPM_P2
2022/04/17 00:01:34;;;;;;;0.45;0.45;;;6.00;87.20;;;;;;5036779;28;20020;-75
2022/04/17 00:04:00;;;;;;;6.70;1.05;;;6.00;87.50;;;;;;5075238;28;20468;-75
2022/04/17 00:06:25;;;;;;;0.70;0.70;;;5.70;86.60;;;;;;5074690;28;20100;-75
2022/04/17 00:08:51;;;;;;;0.30;0.30;;;5.40;89.30;;;;;;5074925;28;20043;-75
2022/04/17 00:11:17;;;;;;;0.30;0.30;;;5.10;90.00;;;;;;5040311;28;20125;-75
2022/04/17 00:13:47;;;;;;;0.40;0.40;;;5.00;90.50;;;;;;5056902;28;20024;-75
2022/04/17 00:16:13;;;;;;;0.98;0.90;;;4.90;90.90;;;;;;5074567;28;20105;-75
2022/04/17 00:18:39;;;;;;;0.52;0.45;;;5.00;91.00;;;;;;5074821;28;20028;-75
2022/04/17 00:21:08;;;;;;;0.30;0.30;;;5.00;91.20;;;;;;5056762;28;20074;-74
2022/04/17 00:23:34;;;;;;;0.20;0.20;;;5.10;90.80;;;;;;5074511;28;20086;-75
2022/04/17 00:26:00;;;;;;;0.32;0.32;;;4.90;91.20;;;;;;5074229;28;20028;-75
2022/04/17 00:28:27;;;;;;;0.28;0.28;;;4.90;91.00;;;;;;5056612;28;20174;-74
2022/04/17 00:30:52;;;;;;;1.40;1.35;;;4.80;91.50;;;;;;5056668;28;20476;-75
2022/04/17 00:33:18;;;;;;;0.30;0.30;;;4.70;91.70;;;;;;5056610;28;20100;-75
2022/04/17 00:35:45;;;;;;;0.65;0.65;;;4.70;92.00;;;;;;5074305;28;20488;-75
2022/04/17 00:38:11;;;;;;;0.30;0.30;;;4.80;91.90;;;;;;5074487;28;20031;-75
2022/04/17 00:40:37;;;;;;;0.30;0.30;;;4.90;91.60;;;;;;5074310;28;20028;-75
2022/04/17 00:43:31;;;;;;;0.35;0.35;;;5.00;91.60;;;;;;5074316;28;20032;-75
2022/04/17 00:45:58;;;;;;;0.30;0.30;;;4.90;91.50;;;;;;5056203;28;20040;-75
2022/04/17 00:48:24;;;;;;;0.73;0.73;;;4.80;91.60;;;;;;5074222;28;20385;-75
2022/04/17 00:50:51;;;;;;;0.40;0.40;;;4.60;92.00;;;;;;5074317;28;20028;-74
2022/04/17 00:53:19;;;;;;;0.85;0.85;;;4.40;92.10;;;;;;5056290;28;20043;-74
2022/04/17 00:55:46;;;;;;;0.30;0.30;;;4.40;92.50;;;;;;5074026;28;20064;-75
2022/04/17 00:58:14;;;;;;;0.30;0.30;;;4.40;92.40;;;;;;5056111;28;20032;-75
2022/04/17 01:00:44;;;;;;;0.35;0.35;;;4.40;92.60;;;;;;5056005;28;20074;-74
2022/04/17 01:03:14;;;;;;;0.40;0.40;;;4.30;92.70;;;;;;5055901;28;20024;-74
2022/04/17 01:05:43;;;;;;;0.40;0.40;;;4.50;93.10;;;;;;5073568;28;20031;-75
2022/04/17 01:08:13;;;;;;;0.30;0.30;;;4.90;92.50;;;;;;5073781;28;20472;-75
2022/04/17 01:10:39;;;;;;;0.38;0.38;;;5.00;91.70;;;;;;5056000;28;20029;-75
2022/04/17 01:13:08;;;;;;;0.30;0.30;;;5.10;91.90;;;;;;5073467;28;20028;-75
2022/04/17 01:15:36;;;;;;;0.30;0.30;;;5.20;91.70;;;;;;5038927;28;20488;-75
2022/04/17 01:18:02;;;;;;;0.30;0.30;;;5.40;91.00;;;;;;5055794;28;20085;-75
2022/04/17 01:20:28;;;;;;;4.45;2.33;;;5.50;90.70;;;;;;5055641;28;20025;-75
2022/04/17 01:28:25;;;;;;;0.30;0.30;;;5.70;90.10;;;;;;5073685;28;20105;-75
2022/04/17 01:30:55;;;;;;;0.30;0.30;;;5.80;89.80;;;;;;5038868;28;20025;-75
2022/04/17 01:33:21;;;;;;;0.30;0.30;;;5.70;89.40;;;;;;5055607;28;20021;-74
2022/04/17 01:35:47;;;;;;;0.30;0.30;;;5.70;89.40;;;;;;5073139;28;20025;-75
2022/04/17 01:38:13;;;;;;;0.35;0.35;;;5.70;88.60;;;;;;5073202;28;20488;-75
2022/04/17 01:40:39;;;;;;;0.30;0.30;;;5.60;88.70;;;;;;5055153;28;20159;-75
2022/04/17 01:43:11;;;;;;;0.30;0.30;;;5.60;88.50;;;;;;5073284;28;20059;-75
2022/04/17 01:45:38;;;;;;;0.30;0.30;;;5.40;87.70;;;;;;5072892;28;20025;-76
2022/04/17 01:48:04;;;;;;;0.20;0.20;;;5.30;88.80;;;;;;5055157;28;20017;-75
2022/04/17 01:50:30;;;;;;;0.30;0.30;;;5.30;88.90;;;;;;5038520;28;20032;-75
2022/04/17 01:53:00;;;;;;;1.92;0.65;;;5.40;87.50;;;;;;5055131;28;20099;-75
2022/04/17 01:55:29;;;;;;;0.93;0.85;;;5.20;88.50;;;;;;5054846;28;20365;-75
2022/04/17 01:57:55;;;;;;;0.40;0.40;;;5.00;88.30;;;;;;5072752;28;20047;-75
2022/04/17 02:00:22;;;;;;;0.40;0.40;;;4.60;90.00;;;;;;5038314;28;20024;-75
2022/04/17 02:02:48;;;;;;;0.40;0.40;;;4.50;90.60;;;;;;5072787;28;20044;-75
2022/04/17 02:05:15;;;;;;;0.40;0.40;;;4.40;90.80;;;;;;5054765;28;20068;-75
2022/04/17 02:07:40;;;;;;;0.40;0.40;;;4.30;91.20;;;;;;5054614;28;20025;-75
2022/04/17 02:10:07;;;;;;;0.30;0.30;;;4.30;91.00;;;;;;5038160;28;20035;-75
2022/04/17 02:12:33;;;;;;;1.55;1.50;;;4.20;91.50;;;;;;5054642;28;20024;-75
2022/04/17 02:14:59;;;;;;;0.68;0.68;;;4.10;91.70;;;;;;5037911;28;20024;-75
2022/04/17 02:17:26;;;;;;;0.35;0.35;;;4.00;91.70;;;;;;5072409;28;20511;-75
2022/04/17 02:19:51;;;;;;;0.30;0.30;;;4.10;91.90;;;;;;5054655;28;20098;-75
2022/04/17 02:22:18;;;;;;;0.70;0.70;;;4.00;92.30;;;;;;5037444;28;20021;-75
2022/04/17 02:24:44;;;;;;;0.30;0.30;;;4.00;92.20;;;;;;5072053;28;20439;-75
2022/04/17 02:27:10;;;;;;;0.30;0.30;;;4.00;92.00;;;;;;5072306;28;20045;-75
2022/04/17 02:29:35;;;;;;;0.30;0.30;;;3.90;91.90;;;;;;5072325;28;20384;-75
2022/04/17 02:32:01;;;;;;;0.32;0.32;;;3.80;92.20;;;;;;5054277;28;20024;-75
2022/04/17 02:34:27;;;;;;;0.32;0.32;;;4.00;92.50;;;;;;5054249;28;20024;-75
2022/04/17 02:36:53;;;;;;;0.40;0.40;;;4.00;92.10;;;;;;5072051;28;20096;-75
2022/04/17 02:39:19;;;;;;;0.40;0.40;;;4.00;91.60;;;;;;5072214;28;20043;-75
2022/04/17 02:41:45;;;;;;;0.82;0.82;;;4.10;92.80;;;;;;5054223;28;20028;-75
2022/04/17 02:44:10;;;;;;;2.05;1.42;;;4.40;91.80;;;;;;5072173;28;20111;-75
2022/04/17 02:49:20;;;;;;;0.43;0.43;;;4.30;91.30;;;;;;5072159;28;20547;-75
2022/04/17 02:51:46;;;;;;;0.45;0.45;;;3.90;91.30;;;;;;5072010;28;20045;-74
2022/04/17 02:54:11;;;;;;;0.65;0.65;;;3.80;92.10;;;;;;5072016;28;20089;-75
2022/04/17 02:56:37;;;;;;;0.30;0.30;;;3.80;92.40;;;;;;5053904;28;20031;-75
2022/04/17 02:59:03;;;;;;;0.40;0.40;;;3.80;92.40;;;;;;5071916;28;20103;-75
2022/04/17 03:06:57;;;;;;;1.13;1.13;;;4.10;92.00;;;;;;5071594;28;20113;-74
2022/04/17 03:09:23;;;;;;;0.30;0.30;;;4.00;91.70;;;;;;5071897;28;20104;-74
2022/04/17 03:11:49;;;;;;;0.40;0.40;;;3.80;91.90;;;;;;5071794;28;20099;-75
2022/04/17 03:14:14;;;;;;;0.30;0.30;;;3.60;92.00;;;;;;5053828;28;20021;-75
2022/04/17 03:16:40;;;;;;;0.80;0.70;;;3.50;92.60;;;;;;5053963;28;20084;-75
2022/04/17 03:19:06;;;;;;;0.50;0.50;;;3.40;92.70;;;;;;5037364;28;20025;-75
2022/04/17 03:21:33;;;;;;;0.40;0.40;;;3.50;93.00;;;;;;5037257;28;20108;-75
2022/04/17 03:23:58;;;;;;;0.40;0.40;;;3.50;93.00;;;;;;5071401;28;20059;-75
2022/04/17 03:26:24;;;;;;;0.35;0.35;;;3.70;93.20;;;;;;5053408;28;20071;-75
2022/04/17 03:28:54;;;;;;;0.30;0.30;;;3.80;93.00;;;;;;5071737;28;20480;-75
2022/04/17 03:31:20;;;;;;;0.30;0.30;;;3.80;92.80;;;;;;5071650;28;20020;-75
2022/04/17 03:33:46;;;;;;;0.50;0.50;;;3.90;92.90;;;;;;5071666;28;20045;-75
2022/04/17 03:36:12;;;;;;;0.50;0.50;;;4.10;93.00;;;;;;5054753;28;20052;-76
2022/04/17 03:38:38;;;;;;;0.40;0.40;;;4.00;91.90;;;;;;5075536;28;20494;-75
2022/04/17 03:41:04;;;;;;;0.40;0.40;;;3.70;92.30;;;;;;5057624;28;20071;-75
2022/04/17 03:43:29;;;;;;;1.17;0.70;;;3.60;93.10;;;;;;5075446;28;20166;-75
2022/04/17 03:45:55;;;;;;;18.98;13.55;;;3.50;92.90;;;;;;5057265;28;20024;-75
2022/04/17 03:48:21;;;;;;;0.40;0.40;;;3.50;93.20;;;;;;5075318;28;20036;-75
2022/04/17 03:50:47;;;;;;;0.32;0.32;;;3.50;93.20;;;;;;5057408;28;20051;-75
2022/04/17 03:53:13;;;;;;;1.50;1.42;;;3.30;93.40;;;;;;5057343;28;20032;-75
2022/04/17 03:55:39;;;;;;;0.50;0.50;;;3.30;93.80;;;;;;5074966;28;20104;-75
2022/04/17 03:58:05;;;;;;;0.50;0.50;;;3.30;93.70;;;;;;5057164;28;20389;-75
2022/04/17 04:00:31;;;;;;;0.30;0.30;;;3.30;93.70;;;;;;5057224;28;20330;-75
2022/04/17 04:02:57;;;;;;;0.45;0.45;;;3.30;93.80;;;;;;5075052;28;20024;-75
2022/04/17 04:05:22;;;;;;;0.40;0.40;;;3.30;93.70;;;;;;5040354;28;20116;-75
2022/04/17 04:07:48;;;;;;;3.38;1.50;;;3.40;93.90;;;;;;5040203;28;20448;-75
2022/04/17 04:10:15;;;;;;;0.47;0.47;;;3.40;94.00;;;;;;5040376;28;20032;-75
2022/04/17 04:12:41;;;;;;;0.40;0.40;;;3.20;94.20;;;;;;5075133;28;20027;-75
2022/04/17 04:15:07;;;;;;;0.45;0.45;;;3.20;94.10;;;;;;5056941;28;20024;-75
2022/04/17 04:17:34;;;;;;;0.35;0.35;;;3.30;94.10;;;;;;5056798;28;20496;-75
2022/04/17 04:20:01;;;;;;;0.40;0.40;;;3.50;94.80;;;;;;5056776;28;20024;-75
2022/04/17 04:22:27;;;;;;;0.82;0.82;;;3.50;93.90;;;;;;5074545;28;20027;-75
2022/04/17 04:24:52;;;;;;;0.35;0.35;;;3.40;93.50;;;;;;5056827;28;20050;-75
2022/04/17 04:30:03;;;;;;;0.40;0.40;;;3.20;94.60;;;;;;5074677;28;20078;-75
2022/04/17 04:32:29;;;;;;;0.65;0.60;;;3.20;94.20;;;;;;5056650;28;20025;-75
2022/04/17 04:35:02;;;;;;;0.47;0.47;;;3.40;94.60;;;;;;5056512;28;20134;-75
2022/04/17 04:37:28;;;;;;;0.45;0.45;;;3.50;94.00;;;;;;5074269;28;20025;-75
2022/04/17 04:39:53;;;;;;;0.80;0.80;;;3.60;94.50;;;;;;5056536;28;20039;-75
2022/04/17 04:42:20;;;;;;;0.40;0.40;;;3.60;93.70;;;;;;5074424;28;20049;-75
2022/04/17 04:44:47;;;;;;;0.40;0.40;;;3.40;93.80;;;;;;5074363;28;20545;-75
2022/04/17 04:47:13;;;;;;;1.98;1.40;;;3.50;94.00;;;;;;5073886;28;20024;-75
2022/04/17 04:49:39;;;;;;;0.40;0.40;;;3.50;94.10;;;;;;5073856;28;20387;-75
2022/04/17 04:52:06;;;;;;;0.30;0.30;;;3.70;94.80;;;;;;5074213;28;20032;-75
2022/04/17 04:54:32;;;;;;;0.30;0.30;;;3.90;94.10;;;;;;5056424;28;20504;-75
2022/04/17 04:57:00;;;;;;;0.35;0.35;;;4.00;93.10;;;;;;5055865;28;20454;-75
2022/04/17 04:59:26;;;;;;;0.40;0.40;;;4.00;94.00;;;;;;5125143;22;20041;-76
2022/04/17 05:01:52;;;;;;;1.25;1.25;;;4.00;93.30;;;;;;5056373;28;20017;-75
2022/04/17 05:04:20;;;;;;;0.60;0.60;;;3.70;93.80;;;;;;5038668;28;20392;-76
2022/04/17 05:06:46;;;;;;;0.50;0.50;;;3.60;94.40;;;;;;5055710;28;20025;-75
2022/04/17 05:09:12;;;;;;;0.30;0.30;;;3.90;95.30;;;;;;5056153;28;20043;-76
2022/04/17 05:11:39;;;;;;;1.77;0.73;;;3.80;93.80;;;;;;5056081;28;20023;-75
2022/04/17 05:14:06;;;;;;;0.30;0.30;;;3.80;94.40;;;;;;5038390;28;20017;-76
2022/04/17 05:16:33;;;;;;;2.53;1.85;;;3.70;94.90;;;;;;5055986;28;20039;-75
2022/04/17 05:19:20;;;;;;;0.30;0.30;;;4.00;95.20;;;;;;5021290;28;20087;-75
2022/04/17 05:21:46;;;;;;;0.70;0.70;;;4.30;94.50;;;;;;5056278;28;20021;-75
2022/04/17 05:24:14;;;;;;;0.73;0.73;;;4.30;93.90;;;;;;5055686;28;20407;-75
2022/04/17 05:26:39;;;;;;;0.50;0.50;;;4.20;93.30;;;;;;5037970;28;20291;-75
2022/04/17 05:29:05;;;;;;;0.40;0.40;;;3.80;94.10;;;;;;5038269;28;20029;-75
2022/04/17 05:31:32;;;;;;;4.05;2.50;;;3.60;94.90;;;;;;5055852;28;20515;-75
2022/04/17 05:33:58;;;;;;;3.28;1.65;;;3.80;95.10;;;;;;5056075;28;20028;-76
2022/04/17 05:36:24;;;;;;;0.88;0.88;;;3.80;95.50;;;;;;5037904;28;20032;-75
2022/04/17 05:38:53;;;;;;;0.30;0.30;;;3.90;95.50;;;;;;5055769;28;20021;-75
2022/04/17 05:41:21;;;;;;;0.80;0.80;;;4.10;95.70;;;;;;5021173;28;20025;-75
2022/04/17 05:43:48;;;;;;;0.70;0.70;;;4.10;95.10;;;;;;5038259;28;20435;-75
2022/04/17 05:46:14;;;;;;;0.40;0.40;;;3.90;95.70;;;;;;5055203;28;20032;-75
2022/04/17 05:48:40;;;;;;;0.50;0.50;;;4.10;96.20;;;;;;5021298;28;20025;-75
2022/04/17 05:51:06;;;;;;;2.30;1.15;;;4.20;95.40;;;;;;5055335;28;20024;-76
2022/04/17 05:53:33;;;;;;;0.60;0.60;;;4.30;96.20;;;;;;5055919;28;20028;-75
2022/04/17 05:55:59;;;;;;;0.40;0.40;;;4.50;95.80;;;;;;5055193;28;20021;-75
2022/04/17 05:58:24;;;;;;;0.55;0.55;;;4.50;96.20;;;;;;5019766;28;20044;-76
2022/04/17 06:00:50;;;;;;;0.38;0.38;;;4.40;95.60;;;;;;5045182;28;20024;-75
2022/04/17 06:03:16;;;;;;;0.98;0.98;;;4.50;96.10;;;;;;5039462;28;20041;-75
2022/04/17 06:05:42;;;;;;;0.30;0.30;;;4.50;96.10;;;;;;5043231;28;20025;-75
2022/04/17 06:08:08;;;;;;;0.65;0.65;;;4.60;95.80;;;;;;5055925;28;20384;-76
2022/04/17 06:10:34;;;;;;;10.45;4.30;;;4.70;95.30;;;;;;5021375;28;20025;-75
2022/04/17 06:13:00;;;;;;;0.50;0.50;;;4.80;94.80;;;;;;5057051;28;20031;-76
2022/04/17 06:15:25;;;;;;;0.60;0.60;;;4.80;95.10;;;;;;5040203;28;20480;-75
2022/04/17 06:17:51;;;;;;;0.95;0.85;;;4.80;94.50;;;;;;5056603;28;20029;-75
2022/04/17 06:20:17;;;;;;;1.30;1.20;;;4.80;94.80;;;;;;5073419;28;20028;-75
2022/04/17 06:22:43;;;;;;;0.40;0.40;;;4.80;94.00;;;;;;5054764;28;20033;-73
2022/04/17 06:25:10;;;;;;;1.65;1.08;;;4.90;94.60;;;;;;5036965;28;20115;-73
2022/04/17 06:27:37;;;;;;;0.40;0.40;;;4.80;93.90;;;;;;5034204;28;20083;-73
2022/04/17 06:30:17;;;;;;;0.80;0.80;;;4.80;94.20;;;;;;5052562;28;20032;-73
2022/04/17 06:32:43;;;;;;;0.60;0.60;;;4.90;93.90;;;;;;5034468;28;20454;-73
2022/04/17 06:35:11;;;;;;;1.15;1.05;;;4.90;94.20;;;;;;5052496;28;20029;-73
2022/04/17 06:37:49;;;;;;;3.17;1.90;;;4.80;93.50;;;;;;5061105;28;20082;-73
2022/04/17 06:40:19;;;;;;;1.42;1.33;;;4.70;93.60;;;;;;5057175;28;20036;-73
2022/04/17 06:42:46;;;;;;;0.30;0.30;;;4.80;93.60;;;;;;5072242;28;20020;-73
2022/04/17 06:45:12;;;;;;;1.55;1.23;;;4.80;93.80;;;;;;5043963;28;20087;-73
2022/04/17 06:47:38;;;;;;;0.60;0.60;;;4.80;94.20;;;;;;5051723;28;20056;-73
2022/04/17 06:50:05;;;;;;;4.70;1.88;;;5.00;94.30;;;;;;5052194;28;20492;-73
2022/04/17 06:52:31;;;;;;;1.23;0.98;;;5.10;92.50;;;;;;5051985;28;20048;-73
2022/04/17 06:54:57;;;;;;;1.90;1.55;;;5.10;92.50;;;;;;5052150;28;20578;-73
2022/04/17 06:57:36;;;;;;;3.10;1.25;;;5.20;92.20;;;;;;5051811;28;20025;-73
2022/04/17 07:00:09;;;;;;;1.52;1.23;;;5.30;92.30;;;;;;5034364;28;20039;-73
2022/04/17 07:02:39;;;;;;;1.35;1.05;;;5.40;91.30;;;;;;5051085;28;20031;-73
2022/04/17 07:05:06;;;;;;;4.03;1.85;;;5.40;91.10;;;;;;5051644;28;20488;-73
2022/04/17 07:07:32;;;;;;;2.45;2.20;;;5.40;90.80;;;;;;5049307;28;20104;-73
2022/04/17 07:09:58;;;;;;;2.70;1.45;;;5.50;90.20;;;;;;5052001;28;20031;-73
2022/04/17 07:12:24;;;;;;;0.80;0.80;;;5.50;90.00;;;;;;5075668;28;20103;-73
2022/04/17 07:14:50;;;;;;;1.13;1.13;;;5.60;90.40;;;;;;5078636;28;20031;-73
2022/04/17 07:17:16;;;;;;;0.50;0.50;;;5.70;90.40;;;;;;5078318;28;20052;-73
2022/04/17 07:19:41;;;;;;;0.55;0.55;;;5.80;90.30;;;;;;5078717;28;20082;-73
2022/04/17 07:22:07;;;;;;;2.72;1.50;;;6.00;89.60;;;;;;5078685;28;20024;-73
2022/04/17 07:24:33;;;;;;;0.55;0.55;;;6.00;88.50;;;;;;5060701;28;20074;-73
2022/04/17 07:27:00;;;;;;;1.23;1.13;;;6.00;87.90;;;;;;5078503;28;20055;-73
2022/04/17 07:29:27;;;;;;;0.85;0.85;;;6.10;85.90;;;;;;5079560;28;20017;-73
2022/04/17 07:31:53;;;;;;;1.10;1.00;;;6.40;86.00;;;;;;5078211;28;20016;-73
2022/04/17 07:34:22;;;;;;;5.57;1.38;;;6.30;85.60;;;;;;5078320;28;20095;-73
2022/04/17 07:36:52;;;;;;;3.50;1.40;;;6.60;85.40;;;;;;5078533;28;20099;-73
2022/04/17 07:39:18;;;;;;;1.58;1.08;;;6.60;83.70;;;;;;5078514;28;20074;-73
2022/04/17 07:41:47;;;;;;;1.83;1.67;;;6.60;82.50;;;;;;5077265;28;20383;-73
2022/04/17 07:44:14;;;;;;;2.70;1.67;;;6.70;83.00;;;;;;5077952;28;20039;-73
2022/04/17 07:46:41;;;;;;;1.15;1.05;;;6.80;82.30;;;;;;5078063;28;20155;-73
2022/04/17 07:49:07;;;;;;;2.72;1.20;;;6.90;81.90;;;;;;5078362;28;20503;-73
2022/04/17 07:51:33;;;;;;;0.90;0.90;;;6.90;80.70;;;;;;5078212;28;20119;-73
2022/04/17 07:54:00;;;;;;;3.15;2.08;;;7.00;80.10;;;;;;5059772;28;20103;-73
2022/04/17 07:56:25;;;;;;;1.73;1.63;;;7.10;79.20;;;;;;5060099;28;20479;-73
2022/04/17 07:58:51;;;;;;;2.63;2.22;;;7.20;78.40;;;;;;5077966;28;20123;-73
2022/04/17 08:01:17;;;;;;;2.03;1.23;;;7.30;79.90;;;;;;5078176;28;20064;-73
2022/04/17 08:06:10;;;;;;;1.63;1.30;;;7.20;79.00;;;;;;5077903;28;20028;-73
2022/04/17 08:08:37;;;;;;;1.55;0.82;;;7.20;78.00;;;;;;5060253;28;20498;-73
2022/04/17 08:11:04;;;;;;;1.75;1.63;;;7.40;78.20;;;;;;5078265;28;20031;-73
2022/04/17 08:13:30;;;;;;;4.20;2.28;;;7.60;77.20;;;;;;5077971;28;20472;-73
2022/04/17 08:15:56;;;;;;;1.67;1.58;;;7.90;77.40;;;;;;5059592;28;20107;-72
2022/04/17 08:18:22;;;;;;;2.75;1.25;;;8.00;75.30;;;;;;5078066;28;20434;-73
2022/04/17 08:20:48;;;;;;;0.82;0.82;;;8.10;74.60;;;;;;5078049;28;20021;-73
2022/04/17 08:23:14;;;;;;;0.55;0.55;;;8.30;75.00;;;;;;5075100;28;20416;-73
2022/04/17 08:25:39;;;;;;;0.63;0.40;;;8.10;73.40;;;;;;5056720;28;20031;-73
2022/04/17 08:28:05;;;;;;;0.20;0.20;;;8.30;73.70;;;;;;5074569;28;20028;-73
2022/04/17 08:30:33;;;;;;;0.60;0.60;;;8.50;74.10;;;;;;5074702;28;20400;-73
2022/04/17 08:33:00;;;;;;;0.43;0.43;;;8.90;73.50;;;;;;5074708;28;20044;-73
2022/04/17 08:35:26;;;;;;;0.73;0.73;;;9.10;73.40;;;;;;5074449;28;20029;-73
2022/04/17 08:37:52;;;;;;;2.40;1.75;;;9.30;71.70;;;;;;5074342;28;20033;-73
2022/04/17 08:40:19;;;;;;;0.57;0.57;;;9.60;72.40;;;;;;5074626;28;20032;-73
2022/04/17 08:42:45;;;;;;;0.50;0.50;;;9.60;71.60;;;;;;5074423;28;20052;-73
2022/04/17 08:45:12;;;;;;;0.32;0.32;;;9.90;69.70;;;;;;5056940;28;20361;-73
2022/04/17 08:47:40;;;;;;;2.22;1.67;;;10.10;67.90;;;;;;5074081;28;20032;-73
2022/04/17 08:50:08;;;;;;;2.00;1.50;;;10.00;66.90;;;;;;5074817;28;20024;-73
2022/04/17 08:52:34;;;;;;;14.50;3.40;;;9.60;69.90;;;;;;5075195;28;20499;-73
2022/04/17 08:55:01;;;;;;;1.88;1.55;;;9.80;70.20;;;;;;5074037;28;20020;-73
2022/04/17 08:57:28;;;;;;;2.42;1.63;;;9.90;66.60;;;;;;5074626;28;20043;-73
2022/04/17 08:59:53;;;;;;;0.50;0.50;;;10.10;67.40;;;;;;5074127;28;20036;-73
2022/04/17 09:02:19;;;;;;;2.13;1.70;;;10.30;67.60;;;;;;5074213;28;20039;-73
2022/04/17 09:04:46;;;;;;;1.15;0.88;;;10.50;65.10;;;;;;5056292;28;20081;-73
2022/04/17 09:07:12;;;;;;;2.70;1.00;;;10.50;65.20;;;;;;5073683;28;20424;-74
2022/04/17 09:09:39;;;;;;;4.55;1.20;;;10.90;66.00;;;;;;5056007;28;20364;-74
2022/04/17 09:12:06;;;;;;;0.85;0.85;;;11.00;63.60;;;;;;5074028;28;20036;-73
2022/04/17 09:14:37;;;;;;;2.40;1.20;;;11.10;64.20;;;;;;5073973;28;20028;-73
2022/04/17 09:17:09;;;;;;;1.08;0.93;;;11.40;63.90;;;;;;5074321;28;20487;-74
2022/04/17 09:19:34;;;;;;;0.50;0.50;;;11.70;60.90;;;;;;5075067;28;20028;-74
2022/04/17 09:22:01;;;;;;;0.50;0.50;;;11.70;59.90;;;;;;5064351;28;20021;-76
2022/04/17 09:24:27;;;;;;;0.38;0.30;;;12.00;58.20;;;;;;5038496;28;20025;-76
2022/04/17 09:26:57;;;;;;;0.50;0.50;;;12.40;58.30;;;;;;5057757;28;20023;-76
2022/04/17 09:29:27;;;;;;;3.13;1.92;;;12.60;57.60;;;;;;5061676;28;20016;-76
2022/04/17 09:32:11;;;;;;;0.47;0.47;;;12.70;56.40;;;;;;5042866;28;20072;-76
2022/04/17 09:34:55;;;;;;;0.63;0.63;;;12.70;55.60;;;;;;5035997;28;20021;-76
2022/04/17 09:37:23;;;;;;;0.20;0.20;;;13.00;56.00;;;;;;5036832;28;20493;-76
2022/04/17 09:39:52;;;;;;;0.38;0.38;;;13.00;55.50;;;;;;5037546;28;20068;-76
2022/04/17 09:42:22;;;;;;;2.97;1.27;;;13.30;54.70;;;;;;5054024;28;20025;-76
2022/04/17 09:44:50;;;;;;;4.78;2.40;;;13.00;53.50;;;;;;5054451;28;20472;-76
2022/04/17 09:47:21;;;;;;;0.73;0.73;;;13.30;53.90;;;;;;5054104;28;20029;-75
2022/04/17 09:50:06;;;;;;;0.75;0.75;;;13.70;53.00;;;;;;5055161;28;20032;-76
2022/04/17 09:52:46;;;;;;;2.35;1.05;;;13.50;51.40;;;;;;5038041;28;20104;-77
2022/04/17 09:55:12;;;;;;;3.65;1.55;;;12.90;51.90;;;;;;5038125;28;20032;-76
2022/04/17 09:57:40;;;;;;;0.28;0.28;;;13.10;51.90;;;;;;5037539;28;20120;-76
2022/04/17 10:00:14;;;;;;;0.85;0.73;;;13.50;53.20;;;;;;5037713;28;20036;-77
2022/04/17 10:02:42;;;;;;;0.70;0.70;;;13.50;51.20;;;;;;5055680;28;20091;-77
2022/04/17 10:05:10;;;;;;;0.30;0.30;;;13.70;51.00;;;;;;5055666;28;20017;-76
2022/04/17 10:07:43;;;;;;;1.65;0.63;;;13.90;49.20;;;;;;5054588;28;20487;-76
2022/04/17 10:10:11;;;;;;;0.90;0.90;;;14.00;49.10;;;;;;5038266;28;20021;-76
2022/04/17 10:12:39;;;;;;;0.75;0.40;;;14.10;48.30;;;;;;5055727;28;20047;-77
2022/04/17 10:15:07;;;;;;;0.45;0.45;;;14.10;48.90;;;;;;5037998;28;20017;-77
2022/04/17 10:17:34;;;;;;;0.68;0.68;;;14.10;48.60;;;;;;5055196;28;20052;-77
2022/04/17 10:20:06;;;;;;;1.00;1.00;;;14.40;49.20;;;;;;5037789;28;20098;-77
2022/04/17 10:22:40;;;;;;;0.82;0.82;;;14.40;48.40;;;;;;5055721;28;20040;-76
2022/04/17 10:25:10;;;;;;;0.98;0.95;;;14.50;48.70;;;;;;5054940;28;20090;-76
2022/04/17 10:27:36;;;;;;;0.20;0.20;;;14.60;47.90;;;;;;5036319;28;20032;-77
2022/04/17 10:30:08;;;;;;;1.35;1.25;;;14.80;47.90;;;;;;5036919;28;20017;-76
2022/04/17 10:32:43;;;;;;;1.75;1.15;;;15.00;47.70;;;;;;5054563;28;20027;-75
2022/04/17 10:35:20;;;;;;;1.15;0.65;;;14.90;46.50;;;;;;5055023;28;20021;-76
2022/04/17 10:37:55;;;;;;;0.50;0.50;;;14.90;45.90;;;;;;5054640;28;20063;-76
2022/04/17 10:40:21;;;;;;;20.27;2.50;;;15.10;45.50;;;;;;5037950;28;20029;-76
2022/04/17 10:42:55;;;;;;;0.30;0.30;;;15.40;44.70;;;;;;5036953;28;20036;-77
2022/04/17 10:45:22;;;;;;;1.02;1.02;;;15.00;45.50;;;;;;5054397;28;20021;-77
2022/04/17 10:48:10;;;;;;;0.77;0.77;;;15.40;44.50;;;;;;5036066;28;20075;-77
2022/04/17 10:50:49;;;;;;;0.80;0.77;;;15.20;46.30;;;;;;5054879;28;20075;-77
2022/04/17 10:53:31;;;;;;;0.98;0.50;;;15.50;44.30;;;;;;5036945;28;20396;-76
2022/04/17 10:56:03;;;;;;;1.30;1.15;;;15.80;43.10;;;;;;5054151;28;20435;-76
2022/04/17 10:58:50;;;;;;;1.10;1.00;;;16.10;42.90;;;;;;5050377;23;20036;-74
2022/04/17 11:01:40;;;;;;;1.05;0.90;;;16.30;42.10;;;;;;5031243;28;20144;-72
2022/04/17 11:04:15;;;;;;;0.80;0.68;;;15.80;42.50;;;;;;5031807;28;20104;-72
2022/04/17 11:06:42;;;;;;;1.13;0.32;;;16.00;41.80;;;;;;5031687;28;20485;-72
2022/04/17 11:09:13;;;;;;;0.25;0.25;;;16.00;40.50;;;;;;5031830;28;20072;-72
2022/04/17 11:11:40;;;;;;;0.40;0.40;;;16.30;39.70;;;;;;5031897;28;20024;-72
2022/04/17 11:14:19;;;;;;;1.48;0.75;;;16.00;40.40;;;;;;5014125;28;20025;-72
2022/04/17 11:16:46;;;;;;;1.15;1.08;;;15.10;41.50;;;;;;5013982;28;20023;-75
2022/04/17 11:19:14;;;;;;;0.43;0.40;;;14.70;42.60;;;;;;5031911;28;20060;-72
2022/04/17 11:21:45;;;;;;;0.50;0.30;;;15.10;43.10;;;;;;5031964;28;20025;-72
2022/04/17 11:24:11;;;;;;;0.50;0.50;;;15.60;41.40;;;;;;5031911;28;20021;-73
2022/04/17 11:26:52;;;;;;;1.17;0.88;;;15.10;41.90;;;;;;5013821;28;20033;-73
2022/04/17 11:29:47;;;;;;;0.80;0.45;;;15.50;41.30;;;;;;5031730;28;20057;-73
2022/04/17 11:32:16;;;;;;;0.47;0.47;;;15.80;40.90;;;;;;5014181;28;20021;-73
2022/04/17 11:34:44;;;;;;;3.50;0.22;;;16.00;41.00;;;;;;5031801;28;20025;-73
2022/04/17 11:37:10;;;;;;;1.23;0.73;;;15.70;41.40;;;;;;5031503;28;20118;-73
2022/04/17 11:39:38;;;;;;;1.75;0.98;;;15.50;41.80;;;;;;5031684;28;20400;-73
2022/04/17 11:42:07;;;;;;;0.38;0.38;;;15.00;43.10;;;;;;5031616;28;20044;-73
2022/04/17 11:44:33;;;;;;;0.38;0.38;;;15.60;43.30;;;;;;5013953;28;20029;-73
2022/04/17 11:46:59;;;;;;;0.20;0.20;;;15.60;41.90;;;;;;5031406;28;20025;-73
2022/04/17 11:49:25;;;;;;;1.20;1.10;;;15.70;41.40;;;;;;5013879;28;20022;-73
2022/04/17 11:51:51;;;;;;;1.42;1.33;;;15.70;41.10;;;;;;5031554;28;20022;-73
2022/04/17 11:54:35;;;;;;;0.50;0.50;;;15.50;41.60;;;;;;5031681;28;20018;-73
2022/04/17 11:57:00;;;;;;;0.20;0.20;;;15.40;41.30;;;;;;5031419;28;20030;-73
2022/04/17 11:59:26;;;;;;;0.60;0.60;;;15.30;42.60;;;;;;5034597;28;20064;-73
2022/04/17 12:02:16;;;;;;;0.68;0.68;;;15.30;43.30;;;;;;5035452;28;20032;-73
2022/04/17 12:04:43;;;;;;;1.40;1.30;;;15.20;43.10;;;;;;5017416;28;20116;-73
2022/04/17 12:07:13;;;;;;;0.45;0.45;;;15.10;42.20;;;;;;5034859;28;20109;-73
2022/04/17 12:09:39;;;;;;;0.40;0.40;;;14.90;41.00;;;;;;5017281;28;20087;-73
2022/04/17 12:12:12;;;;;;;1.48;0.68;;;15.00;42.20;;;;;;5035036;28;20532;-73
2022/04/17 12:14:38;;;;;;;1.58;1.17;;;15.10;43.40;;;;;;5017177;28;20477;-72
2022/04/17 12:17:04;;;;;;;0.32;0.32;;;14.90;44.00;;;;;;5034895;28;20025;-72
2022/04/17 12:19:30;;;;;;;0.45;0.45;;;14.90;44.40;;;;;;5017147;28;20025;-72
2022/04/17 12:21:56;;;;;;;0.22;0.22;;;14.90;44.70;;;;;;5034847;28;20026;-72
2022/04/17 12:24:22;;;;;;;0.52;0.52;;;14.90;44.30;;;;;;5034577;28;20033;-72
2022/04/17 12:26:49;;;;;;;1.98;0.85;;;14.40;45.00;;;;;;5016677;28;20436;-72
2022/04/17 12:29:16;;;;;;;0.73;0.73;;;14.00;44.50;;;;;;5034658;28;20366;-72
2022/04/17 12:31:42;;;;;;;0.80;0.80;;;14.00;44.30;;;;;;5016893;28;20119;-73
2022/04/17 12:34:15;;;;;;;0.40;0.40;;;14.20;44.60;;;;;;5034633;28;20026;-72
2022/04/17 12:36:44;;;;;;;0.32;0.32;;;14.10;44.20;;;;;;5034326;28;20477;-72
2022/04/17 12:39:10;;;;;;;1.10;0.88;;;14.20;43.60;;;;;;5034478;28;20432;-72
2022/04/17 12:41:43;;;;;;;0.68;0.68;;;14.10;42.70;;;;;;5034540;28;20033;-72
2022/04/17 12:44:09;;;;;;;0.40;0.40;;;13.90;42.60;;;;;;5034447;28;20029;-72
2022/04/17 12:46:36;;;;;;;0.63;0.60;;;13.70;43.10;;;;;;5034221;28;20036;-72
2022/04/17 12:49:05;;;;;;;23.02;1.17;;;13.60;42.20;;;;;;5034353;28;20452;-72
2022/04/17 12:51:31;;;;;;;0.95;0.90;;;13.50;42.30;;;;;;5034199;28;20037;-72
2022/04/17 12:53:57;;;;;;;0.40;0.40;;;13.10;43.10;;;;;;5034170;28;20492;-72
2022/04/17 12:56:27;;;;;;;0.28;0.28;;;13.10;43.10;;;;;;5016415;28;20096;-72
2022/04/17 12:59:02;;;;;;;1.05;1.00;;;13.30;43.50;;;;;;5000027;28;20048;-72
2022/04/17 13:01:33;;;;;;;0.20;0.20;;;13.30;43.10;;;;;;5016169;28;20484;-72
2022/04/17 13:04:10;;;;;;;1.08;1.02;;;13.40;43.00;;;;;;5016448;28;20029;-72
2022/04/17 13:06:36;;;;;;;1.20;0.75;;;13.20;42.70;;;;;;5033902;28;20021;-72
2022/04/17 13:09:21;;;;;;;0.63;0.60;;;13.10;43.30;;;;;;5033677;28;20028;-72
2022/04/17 13:11:49;;;;;;;0.50;0.50;;;13.10;42.60;;;;;;5033927;28;20057;-72
2022/04/17 13:14:15;;;;;;;2.08;1.15;;;12.90;43.80;;;;;;5034117;28;20017;-72
2022/04/17 13:16:58;;;;;;;1.13;0.90;;;12.90;43.60;;;;;;5033572;28;20281;-72